Time;durP1;ratioP1;P1;durP2;ratioP2;P2;SDS_P1;SDS_P2;PMS_P1;PMS_P2;Temp;Humidity;BMP_temperature;BMP_pressure;BME280_temperature;BME280_humidity;BME280_pressure;Samples;Min_cycle;Max_cycle;Signal;HPM_P1;HPM_P2
2022/07/19 00:00:11;;;;;;;7.20;3.47;;;26.10;67.10;;;;;;4977521;28;20074;-89
2022/07/19 00:02:38;;;;;;;5.47;3.10;;;26.10;67.40;;;;;;4976324;28;20031;-89
2022/07/19 00:05:04;;;;;;;7.15;3.70;;;26.00;67.50;;;;;;5002274;28;20070;-89
2022/07/19 00:07:30;;;;;;;6.60;3.10;;;26.00;67.60;;;;;;4996953;28;20495;-89
2022/07/19 00:09:55;;;;;;;6.05;2.90;;;26.00;68.00;;;;;;4979468;28;20031;-90
2022/07/19 00:12:21;;;;;;;8.32;2.80;;;26.00;68.30;;;;;;4996079;28;20041;-89
2022/07/19 00:14:47;;;;;;;6.63;3.42;;;25.90;68.60;;;;;;4982072;28;20439;-90
2022/07/19 00:17:13;;;;;;;7.78;2.97;;;25.90;68.90;;;;;;4997415;28;20062;-89
2022/07/19 00:19:38;;;;;;;7.97;3.55;;;25.80;68.90;;;;;;5008032;28;20146;-89
2022/07/19 00:22:04;;;;;;;7.95;3.25;;;25.80;68.70;;;;;;4985481;28;20047;-89
2022/07/19 00:24:30;;;;;;;7.30;3.35;;;25.80;68.90;;;;;;4979138;28;20106;-89
2022/07/19 00:26:55;;;;;;;5.03;3.08;;;25.70;68.80;;;;;;4982559;28;20096;-89
2022/07/19 00:29:21;;;;;;;5.57;3.08;;;25.70;69.00;;;;;;4995335;28;20033;-88
2022/07/19 00:31:47;;;;;;;5.78;3.67;;;25.70;69.40;;;;;;4965448;28;20031;-91
2022/07/19 00:34:12;;;;;;;5.28;3.15;;;25.60;69.70;;;;;;4995462;28;20031;-90
2022/07/19 00:36:38;;;;;;;5.93;3.20;;;25.60;69.80;;;;;;4981980;28;20130;-90
2022/07/19 00:39:04;;;;;;;8.05;3.25;;;25.50;70.20;;;;;;4959395;28;20046;-90
2022/07/19 00:41:29;;;;;;;5.40;3.25;;;25.50;70.10;;;;;;4991056;28;20761;-90
2022/07/19 00:43:57;;;;;;;6.05;3.22;;;25.50;70.30;;;;;;4990753;28;20034;-90
2022/07/19 00:46:23;;;;;;;6.05;3.20;;;25.40;70.40;;;;;;4963179;28;20078;-90
2022/07/19 00:48:50;;;;;;;6.88;3.20;;;25.40;70.40;;;;;;4976208;28;20470;-90
2022/07/19 00:51:17;;;;;;;5.53;3.33;;;25.40;70.60;;;;;;4976074;28;20035;-90
2022/07/19 00:53:43;;;;;;;9.55;3.20;;;25.40;70.70;;;;;;4975374;28;20031;-90
2022/07/19 00:56:11;;;;;;;7.25;3.35;;;25.30;70.80;;;;;;4991559;28;20031;-90
2022/07/19 00:58:38;;;;;;;5.43;3.10;;;25.30;71.00;;;;;;4991683;28;20026;-90
2022/07/19 01:01:06;;;;;;;7.18;3.20;;;25.20;71.20;;;;;;4943357;28;20039;-89
2022/07/19 01:03:39;;;;;;;7.28;3.97;;;25.20;71.40;;;;;;4991330;28;20035;-89
2022/07/19 01:06:06;;;;;;;7.50;3.33;;;25.10;71.50;;;;;;4976154;28;20031;-89
2022/07/19 01:08:32;;;;;;;6.05;3.20;;;25.10;71.50;;;;;;4975290;28;20034;-89
2022/07/19 01:10:58;;;;;;;5.72;3.63;;;25.10;71.40;;;;;;4991137;28;20389;-91
2022/07/19 01:13:24;;;;;;;6.10;3.47;;;25.10;71.40;;;;;;4959129;28;20053;-90
2022/07/19 01:15:50;;;;;;;7.43;3.83;;;25.00;71.40;;;;;;4983180;28;20031;-90
2022/07/19 01:18:16;;;;;;;6.65;3.40;;;25.00;71.60;;;;;;4971100;28;20031;-88
2022/07/19 01:20:41;;;;;;;7.28;3.75;;;24.90;71.50;;;;;;4959407;28;20037;-88
2022/07/19 01:23:07;;;;;;;6.80;4.00;;;24.90;71.20;;;;;;5004725;28;20061;-88
2022/07/19 01:25:36;;;;;;;7.70;3.97;;;24.90;71.30;;;;;;4981234;28;20029;-89
2022/07/19 01:28:04;;;;;;;8.52;3.50;;;24.90;71.30;;;;;;5014836;28;20080;-89
2022/07/19 01:30:30;;;;;;;7.25;4.13;;;24.80;71.20;;;;;;5011369;28;20030;-89
2022/07/19 01:32:56;;;;;;;9.77;4.30;;;24.80;71.30;;;;;;5024998;28;20037;-89
2022/07/19 01:35:22;;;;;;;6.07;3.97;;;24.80;71.50;;;;;;5023198;28;20080;-89
2022/07/19 01:37:49;;;;;;;8.13;4.13;;;24.80;71.70;;;;;;5005815;28;20018;-89
2022/07/19 01:40:17;;;;;;;7.78;3.60;;;24.70;71.80;;;;;;5021132;28;20023;-89
2022/07/19 01:42:43;;;;;;;6.18;3.85;;;24.70;71.80;;;;;;5017198;28;20118;-90
2022/07/19 01:45:10;;;;;;;7.45;4.13;;;24.70;72.00;;;;;;4995791;28;20036;-90
2022/07/19 01:47:36;;;;;;;6.53;3.47;;;24.70;72.10;;;;;;4995199;28;20511;-89
2022/07/19 01:50:04;;;;;;;7.07;4.57;;;24.60;72.20;;;;;;5009786;28;20056;-90
2022/07/19 01:52:29;;;;;;;36.45;22.38;;;24.60;72.60;;;;;;5013950;28;20083;-90
2022/07/19 01:54:55;;;;;;;33.63;22.65;;;24.60;73.10;;;;;;4997481;28;20034;-90
2022/07/19 01:57:20;;;;;;;24.70;15.82;;;24.60;73.10;;;;;;5027926;28;20018;-91
2022/07/19 01:59:46;;;;;;;23.40;14.80;;;24.60;73.60;;;;;;5020713;28;20033;-90
2022/07/19 02:02:12;;;;;;;18.38;11.35;;;24.50;73.70;;;;;;5037093;28;20069;-91
2022/07/19 02:04:37;;;;;;;16.00;9.50;;;24.50;73.70;;;;;;5036941;28;20040;-89
2022/07/19 02:07:03;;;;;;;12.75;7.93;;;24.50;73.90;;;;;;5037115;28;20010;-92
2022/07/19 02:09:29;;;;;;;13.18;5.85;;;24.50;74.00;;;;;;5037096;28;20025;-89
2022/07/19 02:11:55;;;;;;;11.05;5.85;;;24.40;75.00;;;;;;5036947;28;20018;-90
2022/07/19 02:14:20;;;;;;;9.82;5.28;;;24.40;74.50;;;;;;5018319;28;20046;-90
2022/07/19 02:16:46;;;;;;;8.02;4.07;;;24.40;74.50;;;;;;5014274;28;20030;-90
2022/07/19 02:19:11;;;;;;;6.45;4.63;;;24.40;74.80;;;;;;5014534;28;20034;-90
2022/07/19 02:21:38;;;;;;;6.80;4.07;;;24.30;75.10;;;;;;4980687;28;20109;-89
2022/07/19 02:24:06;;;;;;;7.13;4.15;;;24.30;75.20;;;;;;5010167;28;20030;-90
2022/07/19 02:26:32;;;;;;;7.00;4.00;;;24.30;75.80;;;;;;5001036;28;20022;-90
2022/07/19 02:28:57;;;;;;;6.93;4.22;;;24.20;76.10;;;;;;4997083;28;20034;-89
2022/07/19 02:31:23;;;;;;;7.65;3.97;;;24.20;76.20;;;;;;5012897;28;20030;-90
2022/07/19 02:33:49;;;;;;;8.07;3.97;;;24.20;76.10;;;;;;4981074;28;20040;-90
2022/07/19 02:36:16;;;;;;;7.43;3.50;;;24.10;76.30;;;;;;5012555;28;20475;-90
2022/07/19 02:38:43;;;;;;;7.15;3.78;;;24.10;76.50;;;;;;5001696;28;20028;-90
2022/07/19 02:41:09;;;;;;;7.18;3.60;;;24.10;76.70;;;;;;5001507;28;20018;-90
2022/07/19 02:43:34;;;;;;;6.72;3.38;;;24.10;76.80;;;;;;5012276;28;20096;-89
2022/07/19 02:46:00;;;;;;;5.78;3.80;;;24.00;77.00;;;;;;5004880;28;20034;-90
2022/07/19 02:48:26;;;;;;;7.25;3.88;;;24.00;77.30;;;;;;5013496;28;20025;-89
2022/07/19 02:50:51;;;;;;;7.90;4.35;;;24.00;77.40;;;;;;4986325;28;20117;-90
2022/07/19 02:53:17;;;;;;;6.45;3.65;;;23.90;77.50;;;;;;5010639;28;20438;-89
2022/07/19 02:55:42;;;;;;;6.15;3.60;;;23.90;77.80;;;;;;4996696;28;20026;-88
2022/07/19 02:58:08;;;;;;;6.38;3.40;;;23.90;78.00;;;;;;4980804;28;20030;-91
2022/07/19 03:00:34;;;;;;;6.80;3.55;;;23.80;78.20;;;;;;4996700;28;20026;-90
2022/07/19 03:05:46;;;;;;;7.60;3.80;;;23.80;78.20;;;;;;5004470;28;20044;-90
2022/07/19 03:08:11;;;;;;;5.53;3.55;;;23.70;78.20;;;;;;5016547;28;20021;-90
2022/07/19 03:10:37;;;;;;;6.00;3.72;;;23.70;78.40;;;;;;5016585;28;20037;-90
2022/07/19 03:13:03;;;;;;;5.10;3.65;;;23.70;78.50;;;;;;5000157;28;20038;-90
2022/07/19 03:15:29;;;;;;;8.32;3.85;;;23.70;78.70;;;;;;5017185;28;20522;-90
2022/07/19 03:17:54;;;;;;;6.88;3.80;;;23.70;78.80;;;;;;4999958;28;20506;-90
2022/07/19 03:20:20;;;;;;;6.85;3.47;;;23.60;78.90;;;;;;4999822;28;20142;-90
2022/07/19 03:22:46;;;;;;;6.00;3.40;;;23.60;79.10;;;;;;4986268;28;20057;-90
2022/07/19 03:25:11;;;;;;;7.90;3.65;;;23.60;79.20;;;;;;5015996;28;20053;-89
2022/07/19 03:27:37;;;;;;;6.75;3.30;;;23.60;79.40;;;;;;4999721;28;20033;-89
2022/07/19 03:30:04;;;;;;;6.82;3.55;;;23.50;79.50;;;;;;5016070;28;20025;-90
2022/07/19 03:32:30;;;;;;;7.95;3.25;;;23.50;79.70;;;;;;5000203;28;20041;-89
2022/07/19 03:34:56;;;;;;;6.00;3.40;;;23.50;79.80;;;;;;4984794;28;20033;-90
2022/07/19 03:37:21;;;;;;;6.53;3.25;;;23.50;79.90;;;;;;4984059;28;20033;-90
2022/07/19 03:39:47;;;;;;;7.38;3.60;;;23.50;80.00;;;;;;5015969;28;20034;-90
2022/07/19 03:42:13;;;;;;;7.20;3.38;;;23.40;80.00;;;;;;5016862;28;20032;-90
2022/07/19 03:44:38;;;;;;;7.18;3.70;;;23.40;80.10;;;;;;4983172;28;20034;-91
2022/07/19 03:47:04;;;;;;;7.15;3.42;;;23.40;80.00;;;;;;4999800;28;20432;-91
2022/07/19 03:49:30;;;;;;;6.05;3.47;;;23.40;79.90;;;;;;4999457;28;20022;-91
2022/07/19 03:51:56;;;;;;;6.22;3.53;;;23.30;79.90;;;;;;5000436;28;20065;-90
2022/07/19 03:54:21;;;;;;;6.63;3.72;;;23.30;80.20;;;;;;5016162;28;20046;-89
2022/07/19 03:56:47;;;;;;;6.25;3.90;;;23.30;80.40;;;;;;5000071;28;20064;-90
2022/07/19 03:59:13;;;;;;;7.35;3.45;;;23.30;80.40;;;;;;5015346;28;20530;-90
2022/07/19 04:01:40;;;;;;;5.75;3.28;;;23.30;80.50;;;;;;5001655;28;20030;-90
2022/07/19 04:04:06;;;;;;;7.25;3.53;;;23.20;80.70;;;;;;4986117;28;20133;-89
2022/07/19 04:06:31;;;;;;;6.20;3.40;;;23.20;81.00;;;;;;4999129;28;20076;-90
2022/07/19 04:08:57;;;;;;;5.53;3.35;;;23.20;81.20;;;;;;5013209;28;20030;-89
2022/07/19 04:11:23;;;;;;;6.00;3.53;;;23.20;81.50;;;;;;5006879;28;20037;-89
2022/07/19 04:13:49;;;;;;;5.97;3.33;;;23.20;81.60;;;;;;4998806;28;20462;-89
2022/07/19 04:16:14;;;;;;;11.45;3.55;;;23.10;81.60;;;;;;4973328;28;20066;-90
2022/07/19 04:18:40;;;;;;;7.05;3.95;;;23.10;81.80;;;;;;5009624;28;20017;-90
2022/07/19 04:21:06;;;;;;;5.85;3.33;;;23.10;81.90;;;;;;5004074;28;20052;-90
2022/07/19 04:23:31;;;;;;;8.88;3.10;;;23.10;82.10;;;;;;5016306;28;20058;-89
2022/07/19 04:25:57;;;;;;;9.02;3.53;;;23.10;82.80;;;;;;5016118;28;20030;-90
2022/07/19 04:28:23;;;;;;;4.80;3.10;;;23.10;82.60;;;;;;5003418;28;20539;-90
2022/07/19 04:30:49;;;;;;;5.53;3.30;;;23.10;82.90;;;;;;5028370;28;20497;-91
2022/07/19 04:33:16;;;;;;;5.30;3.38;;;23.10;82.90;;;;;;5007899;28;20033;-91
2022/07/19 04:35:42;;;;;;;6.60;3.65;;;23.00;83.10;;;;;;5017409;28;20026;-90
2022/07/19 04:38:08;;;;;;;4.57;3.38;;;23.00;83.30;;;;;;5030992;28;20026;-90
2022/07/19 04:40:34;;;;;;;5.72;3.20;;;23.00;83.60;;;;;;5017688;28;20037;-90
2022/07/19 04:42:59;;;;;;;6.78;3.47;;;23.00;83.90;;;;;;5003657;28;20156;-90
2022/07/19 04:45:25;;;;;;;5.68;3.13;;;23.00;84.20;;;;;;5014253;28;20032;-90
2022/07/19 04:47:51;;;;;;;7.45;3.60;;;23.00;84.20;;;;;;4985292;28;20160;-90
2022/07/19 04:50:16;;;;;;;6.25;3.45;;;23.00;84.40;;;;;;5031162;28;20030;-90
2022/07/19 04:52:42;;;;;;;6.20;3.97;;;23.00;84.20;;;;;;5015702;28;20096;-91
2022/07/19 04:55:08;;;;;;;5.85;3.80;;;23.00;84.00;;;;;;5022001;28;20533;-91
2022/07/19 04:57:34;;;;;;;8.13;4.25;;;22.90;83.70;;;;;;5017740;28;20041;-90
2022/07/19 05:00:00;;;;;;;6.70;3.95;;;22.90;83.40;;;;;;5003436;28;20053;-91
2022/07/19 05:02:25;;;;;;;7.97;3.97;;;22.90;83.20;;;;;;5031112;28;20033;-91
2022/07/19 05:04:51;;;;;;;7.75;4.22;;;22.90;83.00;;;;;;5017716;28;20061;-91
2022/07/19 05:07:17;;;;;;;10.60;3.97;;;22.90;83.70;;;;;;5031607;28;20030;-90
2022/07/19 05:09:43;;;;;;;7.63;3.58;;;22.90;83.20;;;;;;5030162;28;20101;-91
2022/07/19 05:12:10;;;;;;;7.47;3.95;;;22.90;83.20;;;;;;5015635;28;20100;-91
2022/07/19 05:14:36;;;;;;;10.55;3.78;;;22.90;83.30;;;;;;5008555;28;20026;-91
2022/07/19 05:17:02;;;;;;;8.75;3.58;;;22.90;83.40;;;;;;5008076;28;20030;-92
2022/07/19 05:19:28;;;;;;;8.52;3.58;;;22.90;83.50;;;;;;5034722;28;20080;-89
2022/07/19 05:21:54;;;;;;;6.97;3.70;;;22.90;83.70;;;;;;5038797;28;20407;-91
2022/07/19 05:24:19;;;;;;;12.75;4.55;;;22.90;83.80;;;;;;5032034;28;20026;-92
2022/07/19 05:26:45;;;;;;;7.57;4.07;;;22.90;83.60;;;;;;5033349;28;20056;-92
2022/07/19 05:29:11;;;;;;;7.50;4.22;;;23.00;83.60;;;;;;5021699;28;20037;-91
2022/07/19 05:31:37;;;;;;;8.70;4.70;;;22.90;83.50;;;;;;5043941;28;20032;-91
2022/07/19 05:34:03;;;;;;;11.27;5.00;;;23.00;83.50;;;;;;5005477;28;20450;-77
2022/07/19 05:36:29;;;;;;;8.98;4.68;;;23.00;83.80;;;;;;5013468;28;20113;-77
2022/07/19 05:38:55;;;;;;;15.02;4.57;;;23.00;84.20;;;;;;5011837;28;20249;-77
2022/07/19 05:41:21;;;;;;;8.57;4.43;;;23.00;84.30;;;;;;4996311;28;20076;-77
2022/07/19 05:43:48;;;;;;;9.00;5.40;;;23.10;84.60;;;;;;5017271;28;20021;-91
2022/07/19 05:46:14;;;;;;;7.30;5.22;;;23.10;84.90;;;;;;5020790;28;20021;-92
2022/07/19 05:48:40;;;;;;;10.40;4.78;;;23.10;85.00;;;;;;5004695;28;20010;-90
2022/07/19 05:51:06;;;;;;;7.30;4.18;;;23.10;85.40;;;;;;5021122;28;20041;-90
2022/07/19 05:53:31;;;;;;;7.70;4.30;;;23.10;85.60;;;;;;5020705;28;20026;-92
2022/07/19 05:55:57;;;;;;;8.70;4.40;;;23.20;85.80;;;;;;5036562;28;20033;-89
2022/07/19 05:58:24;;;;;;;9.55;4.57;;;23.20;86.00;;;;;;5010991;28;20014;-90
2022/07/19 06:03:35;;;;;;;8.23;4.15;;;23.20;86.10;;;;;;5000342;28;20073;-90
2022/07/19 06:06:01;;;;;;;7.85;4.38;;;23.20;86.30;;;;;;4993357;28;20042;-90
2022/07/19 06:08:26;;;;;;;6.28;4.30;;;23.30;86.60;;;;;;5014000;28;20101;-90
2022/07/19 06:10:52;;;;;;;10.45;4.28;;;23.30;86.80;;;;;;5014116;28;20030;-90
2022/07/19 06:13:18;;;;;;;7.50;4.40;;;23.30;87.10;;;;;;4998264;28;20037;-91
2022/07/19 06:15:44;;;;;;;9.45;4.78;;;23.40;87.10;;;;;;5016780;28;20018;-90
2022/07/19 06:18:10;;;;;;;8.77;4.90;;;23.40;87.20;;;;;;5006651;28;20464;-90
2022/07/19 06:20:36;;;;;;;16.13;5.50;;;23.40;87.00;;;;;;5018451;28;20032;-91
2022/07/19 06:23:01;;;;;;;10.57;4.20;;;23.40;86.00;;;;;;5014382;28;20064;-91
2022/07/19 06:25:27;;;;;;;11.05;5.15;;;23.50;85.50;;;;;;4998556;28;20049;-92
2022/07/19 06:27:52;;;;;;;7.03;4.40;;;23.50;85.10;;;;;;4997109;28;20030;-91
2022/07/19 06:30:18;;;;;;;8.02;5.07;;;23.50;84.40;;;;;;5023775;28;20034;-90
2022/07/19 06:32:44;;;;;;;10.05;4.57;;;23.50;84.50;;;;;;5004876;28;20034;-90
2022/07/19 06:35:10;;;;;;;7.82;4.78;;;23.60;84.90;;;;;;5009912;28;20033;-91
2022/07/19 06:37:35;;;;;;;8.13;4.80;;;23.60;85.00;;;;;;4996795;28;20034;-91
2022/07/19 06:40:02;;;;;;;10.20;4.32;;;23.70;85.00;;;;;;5011864;28;20022;-91
2022/07/19 06:42:27;;;;;;;11.23;5.20;;;23.70;84.90;;;;;;5030199;28;20032;-90
2022/07/19 06:44:53;;;;;;;8.95;4.40;;;23.70;84.10;;;;;;5009795;28;20034;-90
2022/07/19 06:47:19;;;;;;;10.38;5.13;;;23.80;82.80;;;;;;5021196;28;20030;-91
2022/07/19 06:49:44;;;;;;;9.27;4.80;;;23.80;82.50;;;;;;5028074;28;20029;-91
2022/07/19 06:52:10;;;;;;;10.02;3.80;;;23.90;82.10;;;;;;4998545;28;20021;-90
2022/07/19 06:54:36;;;;;;;8.45;3.97;;;23.90;81.90;;;;;;5000302;28;20424;-90
2022/07/19 06:57:01;;;;;;;12.95;5.22;;;24.00;82.50;;;;;;5000168;28;20040;-90
2022/07/19 06:59:27;;;;;;;11.75;5.40;;;24.10;82.60;;;;;;5017349;28;20056;-90
2022/07/19 07:02:03;;;;;;;7.70;4.55;;;24.10;83.00;;;;;;4998580;28;20357;-90
2022/07/19 07:04:29;;;;;;;9.00;4.57;;;24.20;82.20;;;;;;5004316;28;20030;-91
2022/07/19 07:06:57;;;;;;;9.18;4.55;;;24.20;81.80;;;;;;4999673;28;20030;-91
2022/07/19 07:09:23;;;;;;;12.95;7.72;;;24.30;81.50;;;;;;5000724;28;20030;-92
2022/07/19 07:11:49;;;;;;;10.18;5.15;;;24.30;81.10;;;;;;5015815;28;20038;-91
2022/07/19 07:14:15;;;;;;;10.23;4.72;;;24.40;80.90;;;;;;5001355;28;20061;-90
2022/07/19 07:16:40;;;;;;;10.35;4.38;;;24.50;81.00;;;;;;5017824;28;20474;-90
2022/07/19 07:19:06;;;;;;;6.85;3.38;;;24.60;81.20;;;;;;4999986;28;20061;-89
2022/07/19 07:21:35;;;;;;;6.60;4.15;;;24.60;81.40;;;;;;5019532;28;20106;-91
2022/07/19 07:24:02;;;;;;;7.57;4.70;;;24.70;81.40;;;;;;5019900;28;20061;-88
2022/07/19 07:26:29;;;;;;;10.45;4.10;;;24.80;81.00;;;;;;5017192;28;20032;-89
2022/07/19 07:28:55;;;;;;;9.63;3.97;;;24.80;80.40;;;;;;5016227;28;20026;-89
2022/07/19 07:31:21;;;;;;;10.15;4.25;;;24.90;80.10;;;;;;5018575;28;20093;-89
2022/07/19 07:33:47;;;;;;;12.90;5.38;;;25.00;80.10;;;;;;5002958;28;20060;-90
2022/07/19 07:36:13;;;;;;;11.02;5.15;;;25.10;79.70;;;;;;5017252;28;20057;-90
2022/07/19 07:38:38;;;;;;;7.88;4.13;;;25.10;79.70;;;;;;5008604;28;20471;-91
2022/07/19 07:41:04;;;;;;;11.27;4.22;;;25.20;79.50;;;;;;5029840;28;20033;-93
2022/07/19 07:43:30;;;;;;;10.77;4.10;;;25.30;79.10;;;;;;5020049;28;20034;-93
2022/07/19 07:45:56;;;;;;;10.20;3.97;;;25.30;78.90;;;;;;5016717;28;20503;-94
2022/07/19 07:48:21;;;;;;;8.68;3.50;;;25.40;79.20;;;;;;5000429;28;20034;-93
2022/07/19 07:50:47;;;;;;;12.88;4.05;;;25.50;79.00;;;;;;5024763;28;20037;-95
2022/07/19 07:53:13;;;;;;;7.97;3.58;;;25.60;78.80;;;;;;5019537;28;20379;-91
2022/07/19 07:55:39;;;;;;;7.93;3.78;;;25.70;78.30;;;;;;5024173;28;20037;-91
2022/07/19 07:58:10;;;;;;;8.95;3.85;;;25.80;78.20;;;;;;5011769;28;20026;-91
2022/07/19 08:00:36;;;;;;;;;;;25.80;77.90;;;;;;5029218;28;20022;-91
2022/07/19 08:03:02;;;;;;;9.18;3.38;;;25.90;78.10;;;;;;5016729;28;19921;-91
2022/07/19 08:05:28;;;;;;;10.95;4.07;;;26.00;77.70;;;;;;5029562;28;20113;-89
2022/07/19 08:07:54;;;;;;;8.05;3.20;;;26.00;76.80;;;;;;5000202;28;20060;-90
2022/07/19 08:10:21;;;;;;;7.43;3.70;;;26.10;76.80;;;;;;5016247;28;20022;-90
2022/07/19 08:12:47;;;;;;;8.95;3.88;;;26.20;76.30;;;;;;5016682;28;20033;-92
2022/07/19 08:15:12;;;;;;;10.68;3.17;;;26.30;76.10;;;;;;5011476;28;20567;-91
2022/07/19 08:17:38;;;;;;;5.90;2.95;;;26.40;76.50;;;;;;4999536;28;20489;-92
2022/07/19 08:20:04;;;;;;;7.68;3.63;;;26.50;77.20;;;;;;5026173;28;20499;-90
2022/07/19 08:22:30;;;;;;;8.23;3.17;;;26.60;77.40;;;;;;5011965;28;20054;-90
2022/07/19 08:24:56;;;;;;;6.68;3.20;;;26.70;76.20;;;;;;4991194;28;20037;-90
2022/07/19 08:27:21;;;;;;;7.72;3.55;;;26.80;76.00;;;;;;5016677;28;20089;-89
2022/07/19 08:29:47;;;;;;;6.05;3.30;;;26.90;75.70;;;;;;5016692;28;20029;-90
2022/07/19 08:32:13;;;;;;;9.50;3.75;;;27.00;76.40;;;;;;4985848;28;20034;-90
2022/07/19 08:34:38;;;;;;;4.63;2.40;;;27.00;76.10;;;;;;4998410;28;20029;-90
2022/07/19 08:37:04;;;;;;;8.88;3.33;;;27.10;75.60;;;;;;5011196;28;20030;-89
2022/07/19 08:39:30;;;;;;;9.82;3.30;;;27.20;76.00;;;;;;5015563;28;20022;-89
2022/07/19 08:41:55;;;;;;;6.43;2.83;;;27.30;75.70;;;;;;5007052;28;20099;-91
2022/07/19 08:44:22;;;;;;;9.85;3.53;;;27.30;75.00;;;;;;5014389;28;20069;-90
2022/07/19 08:46:49;;;;;;;10.07;2.90;;;27.40;73.70;;;;;;4998686;28;20029;-90
2022/07/19 08:49:15;;;;;;;6.15;2.88;;;27.50;74.10;;;;;;4997893;28;20030;-89
2022/07/19 08:51:42;;;;;;;10.05;3.67;;;27.60;73.50;;;;;;4999003;28;20036;-91
2022/07/19 08:54:08;;;;;;;9.88;3.22;;;27.60;72.70;;;;;;4996934;28;20064;-90
2022/07/19 08:59:18;;;;;;;6.03;2.75;;;27.80;72.10;;;;;;4998146;28;20526;-90
2022/07/19 09:01:43;;;;;;;6.13;2.35;;;27.90;71.70;;;;;;4998159;28;20113;-90
2022/07/19 09:04:18;;;;;;;15.13;3.55;;;27.90;71.70;;;;;;5015191;28;20026;-90
2022/07/19 09:06:43;;;;;;;8.23;3.25;;;28.00;71.40;;;;;;5014850;28;20048;-90
2022/07/19 09:09:10;;;;;;;5.00;2.53;;;28.10;71.60;;;;;;5013912;28;20034;-90
2022/07/19 09:11:48;;;;;;;6.50;2.60;;;28.20;70.80;;;;;;4997542;28;20558;-90
2022/07/19 09:14:20;;;;;;;5.03;2.40;;;28.30;70.10;;;;;;4997759;28;20097;-90
2022/07/19 09:16:50;;;;;;;7.50;2.95;;;28.40;69.80;;;;;;4999014;28;20029;-92
2022/07/19 09:19:15;;;;;;;6.70;2.50;;;28.50;69.70;;;;;;5015639;28;20527;-90
2022/07/19 09:22:18;;;;;;;6.72;2.78;;;28.60;70.10;;;;;;4981404;28;20029;-91
2022/07/19 09:24:46;;;;;;;5.57;2.78;;;28.70;69.60;;;;;;4956022;29;20038;-92
2022/07/19 09:27:15;;;;;;;6.30;2.90;;;28.70;69.30;;;;;;5000621;28;20105;-91
2022/07/19 09:29:43;;;;;;;6.95;3.17;;;28.80;68.70;;;;;;5020829;28;20014;-88
2022/07/19 09:32:16;;;;;;;7.07;2.60;;;28.90;68.40;;;;;;5036852;28;20014;-89
2022/07/19 09:34:53;;;;;;;8.23;3.00;;;29.00;68.10;;;;;;5037516;28;20021;-89
2022/07/19 09:37:28;;;;;;;10.15;3.40;;;29.10;67.60;;;;;;5019416;28;20006;-89
2022/07/19 09:39:59;;;;;;;7.22;2.53;;;29.10;67.10;;;;;;5037032;28;20030;-90
2022/07/19 09:42:38;;;;;;;9.80;3.70;;;29.20;67.00;;;;;;5036094;28;20044;-89
2022/07/19 09:45:17;;;;;;;7.40;2.90;;;29.30;66.30;;;;;;5034452;28;20025;-88
2022/07/19 09:47:45;;;;;;;7.43;2.92;;;29.40;65.80;;;;;;5027636;28;20026;-88
2022/07/19 09:50:14;;;;;;;7.63;2.67;;;29.50;65.50;;;;;;5031207;28;20033;-88
2022/07/19 09:52:40;;;;;;;8.38;3.30;;;29.60;65.70;;;;;;5012536;28;20130;-88
2022/07/19 09:55:08;;;;;;;8.32;2.72;;;29.60;64.90;;;;;;4985185;28;20050;-89
2022/07/19 09:57:40;;;;;;;11.02;3.25;;;29.70;64.40;;;;;;5030172;28;20034;-88
2022/07/19 10:00:08;;;;;;;8.57;2.97;;;29.80;64.40;;;;;;4983637;28;20061;-88
2022/07/19 10:02:39;;;;;;;6.07;2.53;;;29.90;63.50;;;;;;5013799;28;20045;-88
2022/07/19 10:05:06;;;;;;;5.15;2.90;;;29.90;62.80;;;;;;5013142;28;20080;-86
2022/07/19 10:07:33;;;;;;;12.05;2.78;;;30.00;61.70;;;;;;5013595;28;20030;-89
2022/07/19 10:10:08;;;;;;;10.20;2.80;;;30.10;60.50;;;;;;4996970;28;20037;-88
2022/07/19 10:12:35;;;;;;;7.57;2.50;;;30.20;59.60;;;;;;5014306;28;20088;-88
2022/07/19 10:15:01;;;;;;;9.60;2.92;;;30.30;59.60;;;;;;5018034;28;20022;-87
2022/07/19 10:17:33;;;;;;;6.97;2.50;;;30.40;58.80;;;;;;4992525;28;20140;-88
2022/07/19 10:20:00;;;;;;;4.30;2.75;;;30.50;58.20;;;;;;5014200;28;20026;-88
2022/07/19 10:22:27;;;;;;;4.72;2.50;;;30.60;57.40;;;;;;5000419;28;20112;-89
2022/07/19 10:24:58;;;;;;;6.90;2.85;;;30.60;57.90;;;;;;5016459;28;20113;-89
2022/07/19 10:27:24;;;;;;;5.53;2.28;;;30.70;58.00;;;;;;4999608;28;20368;-88
2022/07/19 10:29:50;;;;;;;6.60;3.03;;;30.80;57.30;;;;;;5005592;28;20036;-89
2022/07/19 10:32:16;;;;;;;6.85;2.58;;;30.90;56.70;;;;;;4983529;28;20104;-87
2022/07/19 10:34:46;;;;;;;6.22;2.65;;;31.00;57.00;;;;;;5013875;28;20030;-88
2022/07/19 10:37:12;;;;;;;5.70;2.38;;;31.10;57.30;;;;;;5016583;28;20033;-87
2022/07/19 10:39:39;;;;;;;6.53;2.63;;;31.20;56.80;;;;;;5017688;28;20029;-90
2022/07/19 10:42:23;;;;;;;6.88;3.40;;;31.20;56.70;;;;;;5017237;28;20467;-86
2022/07/19 10:44:55;;;;;;;6.22;2.78;;;31.30;56.60;;;;;;4999893;28;20513;-87
2022/07/19 10:47:42;;;;;;;6.30;2.67;;;31.40;56.20;;;;;;5018733;28;20037;-87
2022/07/19 10:50:10;;;;;;;7.78;2.30;;;31.50;55.90;;;;;;5005533;28;20038;-89
2022/07/19 10:52:38;;;;;;;5.90;2.88;;;31.60;55.40;;;;;;5015837;28;20395;-87
2022/07/19 10:55:25;;;;;;;9.43;3.35;;;31.60;54.40;;;;;;5014133;28;20056;-87
2022/07/19 10:58:10;;;;;;;6.13;3.08;;;31.70;54.10;;;;;;5015525;28;20060;-87
2022/07/19 11:00:44;;;;;;;6.13;2.38;;;31.80;54.40;;;;;;5017083;28;20056;-86
2022/07/19 11:03:22;;;;;;;6.05;2.65;;;31.90;54.80;;;;;;5014997;28;20030;-87
2022/07/19 11:05:57;;;;;;;5.00;2.28;;;31.90;53.90;;;;;;5015770;28;20502;-87
2022/07/19 11:08:40;;;;;;;7.30;2.33;;;32.00;52.80;;;;;;5016405;28;20026;-88
2022/07/19 11:11:14;;;;;;;7.28;2.88;;;32.10;52.20;;;;;;5016259;28;20030;-88
2022/07/19 11:13:44;;;;;;;20.88;3.53;;;32.20;52.20;;;;;;5002588;28;20057;-88
2022/07/19 11:16:09;;;;;;;8.57;2.67;;;32.30;51.90;;;;;;5014977;28;20022;-87
2022/07/19 11:18:35;;;;;;;5.20;2.53;;;32.40;51.90;;;;;;4998655;28;20498;-87
2022/07/19 11:21:03;;;;;;;4.88;2.17;;;32.50;51.80;;;;;;5015155;28;20491;-87
2022/07/19 11:23:31;;;;;;;4.68;2.10;;;32.60;51.10;;;;;;4998104;28;20061;-86
2022/07/19 11:26:11;;;;;;;7.05;2.60;;;32.70;51.40;;;;;;5015246;28;20026;-89
2022/07/19 11:28:38;;;;;;;4.18;2.30;;;32.80;51.10;;;;;;5006994;28;20045;-88
2022/07/19 11:31:18;;;;;;;8.68;2.60;;;32.80;50.60;;;;;;4999971;28;20030;-88
2022/07/19 11:33:46;;;;;;;5.85;2.38;;;32.90;50.40;;;;;;5015147;28;20021;-89
2022/07/19 11:36:16;;;;;;;4.82;2.40;;;33.00;50.50;;;;;;5014861;28;20030;-88
2022/07/19 11:38:43;;;;;;;3.58;1.98;;;33.10;50.10;;;;;;5005086;28;20033;-87
2022/07/19 11:41:13;;;;;;;6.68;2.25;;;33.10;48.80;;;;;;4997741;28;20022;-88
2022/07/19 11:43:40;;;;;;;6.75;2.60;;;33.20;48.50;;;;;;4990664;28;20398;-87
2022/07/19 11:46:06;;;;;;;5.38;2.30;;;33.30;46.60;;;;;;5015668;28;20049;-88
2022/07/19 11:48:32;;;;;;;5.32;2.58;;;33.40;46.90;;;;;;4984756;28;20139;-90
2022/07/19 11:51:02;;;;;;;6.75;2.45;;;33.50;46.40;;;;;;4994788;28;20475;-92
2022/07/19 11:53:28;;;;;;;9.30;2.78;;;33.50;46.60;;;;;;5012889;28;20113;-95
2022/07/19 11:55:54;;;;;;;10.73;2.65;;;33.60;46.50;;;;;;4993778;28;20048;-93
2022/07/19 11:58:20;;;;;;;4.72;2.25;;;33.70;46.50;;;;;;5012943;28;20559;-93
2022/07/19 12:00:45;;;;;;;7.65;3.00;;;33.80;46.70;;;;;;5016463;28;20033;-90
2022/07/19 12:03:16;;;;;;;5.07;2.50;;;33.90;47.10;;;;;;4982674;28;20028;-92
2022/07/19 12:05:54;;;;;;;3.92;2.25;;;33.90;46.90;;;;;;5016379;28;20026;-93
2022/07/19 12:08:20;;;;;;;6.28;2.38;;;34.10;47.10;;;;;;5014946;28;20057;-89
2022/07/19 12:10:51;;;;;;;4.75;2.75;;;34.10;46.80;;;;;;4996398;28;20026;-87
2022/07/19 12:13:33;;;;;;;6.18;2.60;;;34.20;45.80;;;;;;4997393;28;20037;-89
2022/07/19 12:16:07;;;;;;;6.93;2.75;;;34.30;46.40;;;;;;4990567;28;20100;-89
2022/07/19 12:18:47;;;;;;;5.15;2.65;;;34.30;46.30;;;;;;4992292;28;20022;-89
2022/07/19 12:21:25;;;;;;;4.00;2.35;;;34.40;45.90;;;;;;5016555;28;20112;-88
2022/07/19 12:24:14;;;;;;;4.53;2.70;;;34.50;46.10;;;;;;5015493;28;20048;-86
2022/07/19 12:26:43;;;;;;;4.72;2.17;;;34.50;46.60;;;;;;4998206;28;20017;-91
2022/07/19 12:29:43;;;;;;;10.75;2.72;;;34.60;46.30;;;;;;5008535;28;20019;-89
2022/07/19 12:32:33;;;;;;;6.50;2.70;;;34.70;44.90;;;;;;4989270;28;20034;-89
2022/07/19 12:35:01;;;;;;;6.78;2.50;;;34.80;45.50;;;;;;5015772;28;20080;-89
2022/07/19 12:37:30;;;;;;;5.43;2.40;;;34.80;44.70;;;;;;5014773;28;20022;-88
2022/07/19 12:40:19;;;;;;;3.60;2.10;;;34.90;44.90;;;;;;5015758;28;20261;-86
2022/07/19 12:42:59;;;;;;;4.60;2.45;;;35.00;44.80;;;;;;4991181;28;20041;-87
2022/07/19 12:45:26;;;;;;;3.75;2.17;;;35.00;45.20;;;;;;4987771;28;20030;-86
2022/07/19 12:47:52;;;;;;;7.10;2.88;;;35.10;44.10;;;;;;5009174;28;20034;-87
2022/07/19 12:50:21;;;;;;;6.65;2.55;;;35.20;43.30;;;;;;5003767;28;20371;-86
2022/07/19 12:52:47;;;;;;;5.10;2.30;;;35.20;43.40;;;;;;5017292;28;20387;-87
2022/07/19 12:55:13;;;;;;;5.97;2.47;;;35.30;43.60;;;;;;5001933;28;20070;-86